Main page
METAR-TAF:

METAR-TAF

Airports :

Stockholm Skavsta Airport

Stockholm-Skavsta, Sweden

latitude: 58-47N, longitude: 016-55E, elevation: 43 m

Current weather observation

The report was made 15 minutes ago, at 17:50 UTC
Wind 7 kt from the West/Southwest
Temperature 21°C
Humidity 69%
Pressure 1012 hPa
Visibility 10 km or more
Scattered clouds at a height of 3800 ft

METAR: ESKN 231750Z 25007KT 9999 SCT038 21/15 Q1012

Time: 20:05 (18:05 UTC)

Forecast

The report was made 35 minutes ago, at 17:30 UTC
Forecast valid from 23 at 18 UTC to 24 at 18 UTC
Wind 7 kt from the West
Visibility 10 km or more
Scattered clouds at a height of 3500 ft
Probability 40%
from 24 at 14 UTC to 24 at 18 UTC
Broken clouds at a height of 3000 ft, Cumulonimbus.
rain showers,

TAF: ESKN 231730Z 2318/2418 26007KT 9999 SCT035 PROB40 2414/2418 SHRA BKN030CB

Weather observations and forecasts of more than 4000 airports (METAR and TAF reports).

The available stations are represented by yellow and red dots on the map.

Hover mouse over dot to see the name of the station.

Then click to see weather observations and forecasts.

To change the map : click on the green buttons with a black cross to zoom in, on the green button with a dash to zoom out, or on the green arrows for adjacent maps.


METAR-TAF: